Time;durP1;ratioP1;P1;durP2;ratioP2;P2;SDS_P1;SDS_P2;PMS_P1;PMS_P2;Temp;Humidity;BMP_temperature;BMP_pressure;BME280_temperature;BME280_humidity;BME280_pressure;Samples;Min_cycle;Max_cycle;Signal;HPM_P1;HPM_P2
2022/07/30 00:00:15;;;;;;;3.77;1.20;;;;;;;17.96;54.08;100190.84;4205045;28;20316;-62
2022/07/30 00:02:51;;;;;;;2.33;1.00;;;;;;;18.06;53.69;100193.16;4202003;28;22444;-63
2022/07/30 00:05:20;;;;;;;4.63;1.20;;;;;;;18.01;53.94;100192.94;4203149;28;20237;-64
2022/07/30 00:07:47;;;;;;;4.10;1.30;;;;;;;17.98;54.22;100191.47;4198434;28;20240;-64
2022/07/30 00:10:13;;;;;;;4.40;1.30;;;;;;;18.00;54.14;100192.09;4209691;28;20717;-64
2022/07/30 00:12:40;;;;;;;3.67;1.20;;;;;;;18.04;53.63;100185.28;4191940;28;23559;-63
2022/07/30 00:15:07;;;;;;;2.77;1.10;;;;;;;18.03;53.96;100189.00;4194769;28;20240;-64
2022/07/30 00:17:34;;;;;;;2.33;1.23;;;;;;;18.00;53.94;100188.56;4198797;28;22478;-66
2022/07/30 00:20:00;;;;;;;2.30;1.00;;;;;;;18.02;53.80;100187.31;4200756;28;20238;-65
2022/07/30 00:22:29;;;;;;;4.13;1.20;;;;;;;18.01;54.03;100182.16;4213611;28;20237;-63
2022/07/30 00:24:56;;;;;;;6.47;1.23;;;;;;;18.02;54.10;100179.25;4190955;28;20298;-63
2022/07/30 00:27:22;;;;;;;5.30;1.20;;;;;;;18.05;54.49;100170.78;4200151;28;20478;-65
2022/07/30 00:29:49;;;;;;;4.23;1.20;;;;;;;17.96;55.02;100166.63;4197432;28;22302;-62
2022/07/30 00:32:16;;;;;;;3.90;0.97;;;;;;;17.93;55.13;100156.22;4196989;28;20432;-65
2022/07/30 00:34:42;;;;;;;5.37;1.30;;;;;;;17.87;55.35;100155.16;4199848;28;21368;-64
2022/07/30 00:37:09;;;;;;;4.57;1.20;;;;;;;17.82;55.78;100154.13;4210175;28;21902;-64
2022/07/30 00:39:35;;;;;;;5.37;1.23;;;;;;;17.83;55.59;100145.00;4201002;28;20286;-65
2022/07/30 00:42:03;;;;;;;2.40;1.20;;;;;;;17.84;56.05;100149.34;4201889;28;20234;-63
2022/07/30 00:44:30;;;;;;;4.20;1.30;;;;;;;17.88;55.99;100156.00;4203612;28;20236;-64
2022/07/30 00:46:56;;;;;;;5.53;1.00;;;;;;;17.82;56.33;100148.72;4220495;28;20230;-63
2022/07/30 00:49:24;;;;;;;6.50;1.20;;;;;;;17.81;56.35;100141.66;4205140;28;20613;-62
2022/07/30 00:51:51;;;;;;;4.43;1.20;;;;;;;17.87;56.57;100141.72;4189382;28;22839;-64
2022/07/30 00:54:18;;;;;;;9.00;1.27;;;;;;;17.80;57.18;100140.00;4224853;28;20251;-63
2022/07/30 00:56:46;;;;;;;2.63;1.10;;;;;;;17.82;57.01;100137.97;4196107;28;22735;-65
2022/07/30 00:59:13;;;;;;;7.33;1.30;;;;;;;17.73;57.33;100135.41;4197246;28;20279;-63
2022/07/30 01:01:39;;;;;;;4.83;1.27;;;;;;;17.72;57.58;100128.38;4197845;28;20287;-63
2022/07/30 01:04:12;;;;;;;3.33;1.40;;;;;;;17.76;57.71;100125.25;4192736;28;20638;-63
2022/07/30 01:06:39;;;;;;;3.50;1.30;;;;;;;17.66;58.28;100128.31;4192508;28;21951;-62
2022/07/30 01:09:06;;;;;;;2.07;1.20;;;;;;;17.64;58.57;100133.06;4191317;28;20915;-64
2022/07/30 01:11:37;;;;;;;4.53;1.07;;;;;;;17.62;58.75;100130.56;4194400;28;20722;-64
2022/07/30 01:14:05;;;;;;;6.67;1.50;;;;;;;17.53;59.10;100121.00;4190566;28;20245;-64
2022/07/30 01:16:33;;;;;;;4.10;1.20;;;;;;;17.56;59.43;100114.38;4192513;28;20871;-65
2022/07/30 01:22:01;;;;;;;5.07;1.20;;;;;;;17.45;60.04;100105.03;4194661;28;20237;-63
2022/07/30 01:24:42;;;;;;;2.70;1.23;;;;;;;17.43;60.11;100107.91;4196144;28;20616;-64
2022/07/30 01:27:10;;;;;;;3.73;1.17;;;;;;;17.35;60.69;100107.22;4186890;28;22409;-62
2022/07/30 01:29:38;;;;;;;4.10;1.30;;;;;;;17.40;60.96;100108.31;4198133;28;21315;-64
2022/07/30 01:32:07;;;;;;;3.77;1.13;;;;;;;17.39;60.69;100111.19;4190246;28;20237;-63
2022/07/30 01:34:35;;;;;;;5.43;1.37;;;;;;;17.36;61.51;100111.59;4197359;28;20263;-62
2022/07/30 01:37:03;;;;;;;1.77;1.20;;;;;;;17.27;61.64;100109.03;4199374;28;20561;-62
2022/07/30 01:39:30;;;;;;;3.60;1.30;;;;;;;17.29;61.87;100107.00;4184155;28;20250;-62
2022/07/30 01:41:57;;;;;;;6.40;1.87;;;;;;;17.33;62.07;100098.53;4187571;28;20708;-62
2022/07/30 01:44:25;;;;;;;4.83;1.23;;;;;;;17.28;62.11;100097.28;4194037;28;21265;-64
2022/07/30 01:46:54;;;;;;;2.87;1.20;;;;;;;17.35;62.43;100089.25;4193573;28;21651;-63
2022/07/30 01:49:21;;;;;;;6.60;1.20;;;;;;;17.28;62.60;100083.81;4194958;28;20253;-63
2022/07/30 01:51:49;;;;;;;3.90;1.40;;;;;;;17.35;62.45;100083.88;4195647;28;20241;-65
2022/07/30 01:54:17;;;;;;;2.93;1.30;;;;;;;17.34;62.63;100076.81;4198314;28;20738;-63
2022/07/30 01:56:45;;;;;;;4.17;1.20;;;;;;;17.25;62.97;100070.75;4197300;28;22408;-65
2022/07/30 01:59:13;;;;;;;3.67;1.20;;;;;;;17.26;63.30;100077.81;4200389;28;20304;-65
2022/07/30 02:01:39;;;;;;;5.73;1.43;;;;;;;17.18;63.87;100066.38;4194733;28;20305;-65
2022/07/30 02:04:06;;;;;;;3.00;1.10;;;;;;;17.16;63.83;100068.41;4198414;28;20237;-65
2022/07/30 02:06:37;;;;;;;7.87;1.60;;;;;;;17.20;63.94;100070.53;4200616;28;20232;-64
2022/07/30 02:09:05;;;;;;;3.43;1.20;;;;;;;17.23;64.14;100069.28;4194124;28;20240;-64
2022/07/30 02:14:29;;;;;;;3.57;1.40;;;;;;;17.18;64.42;100059.13;4197360;28;21219;-64
2022/07/30 02:16:57;;;;;;;1.73;1.10;;;;;;;17.21;64.69;100056.06;4196677;28;20236;-64
2022/07/30 02:19:33;;;;;;;2.67;1.33;;;;;;;17.15;64.76;100062.22;4195155;28;20258;-64
2022/07/30 02:22:05;;;;;;;7.53;1.60;;;;;;;17.11;65.44;100066.31;4185516;28;20316;-62
2022/07/30 02:24:36;;;;;;;3.57;1.40;;;;;;;17.07;65.56;100063.22;4173832;28;20629;-61
2022/07/30 02:27:13;;;;;;;6.93;1.40;;;;;;;17.15;65.28;100053.31;4193536;28;20249;-64
2022/07/30 02:29:40;;;;;;;3.73;1.20;;;;;;;17.20;65.22;100054.38;4188023;28;20330;-65
2022/07/30 02:32:10;;;;;;;4.90;1.20;;;;;;;17.18;65.59;100048.38;4198945;28;20582;-64
2022/07/30 02:34:39;;;;;;;7.90;1.20;;;;;;;17.16;65.17;100042.38;4198755;28;20237;-64
2022/07/30 02:37:07;;;;;;;3.87;1.30;;;;;;;17.12;65.78;100045.66;4171908;28;20426;-67
2022/07/30 02:39:35;;;;;;;7.83;1.50;;;;;;;17.02;66.23;100040.63;4197609;28;20232;-62
2022/07/30 02:42:03;;;;;;;2.57;1.20;;;;;;;17.07;66.40;100032.81;4197847;28;20233;-65
2022/07/30 02:44:29;;;;;;;5.53;1.40;;;;;;;17.08;65.91;100031.78;4186147;28;20322;-61
2022/07/30 02:46:57;;;;;;;2.60;1.17;;;;;;;17.09;66.19;100023.53;4199564;28;20712;-66
2022/07/30 02:49:32;;;;;;;2.00;1.00;;;;;;;17.15;66.17;100029.94;4203316;28;21617;-63
2022/07/30 02:51:59;;;;;;;5.10;1.30;;;;;;;17.16;66.14;100025.41;4198337;28;20677;-62
2022/07/30 02:54:26;;;;;;;4.50;1.20;;;;;;;17.19;65.94;100023.16;4202166;28;22358;-63
2022/07/30 02:56:58;;;;;;;1.73;1.20;;;;;;;17.09;65.92;100022.66;4204092;28;20288;-62
2022/07/30 02:59:25;;;;;;;4.80;1.10;;;;;;;17.13;65.92;100021.25;4191679;28;21156;-66
2022/07/30 03:01:52;;;;;;;2.80;1.03;;;;;;;17.15;66.29;100013.00;4198502;28;20233;-62
2022/07/30 03:04:19;;;;;;;2.40;1.23;;;;;;;17.09;66.31;100011.91;4205500;28;20232;-65
2022/07/30 03:06:47;;;;;;;3.83;1.30;;;;;;;17.15;66.32;100011.13;4195165;28;20229;-62
2022/07/30 03:09:16;;;;;;;6.90;1.30;;;;;;;17.13;66.50;100001.59;4199845;28;20233;-64
2022/07/30 03:11:43;;;;;;;3.37;1.10;;;;;;;17.09;66.62;100003.84;4193539;28;21115;-63
2022/07/30 03:14:10;;;;;;;5.10;1.23;;;;;;;17.11;66.66;100000.97;4201508;28;21121;-63
2022/07/30 03:16:37;;;;;;;2.67;1.20;;;;;;;17.05;67.21;100013.34;4202266;28;20241;-63
2022/07/30 03:19:06;;;;;;;7.13;1.30;;;;;;;17.07;66.72;100016.69;4208655;28;20389;-64
2022/07/30 03:21:34;;;;;;;2.53;1.20;;;;;;;17.03;67.05;100012.72;4197339;28;23025;-63
2022/07/30 03:24:02;;;;;;;5.83;1.50;;;;;;;17.06;67.37;100009.63;4212821;28;22372;-61
2022/07/30 03:26:30;;;;;;;6.90;1.40;;;;;;;17.12;67.48;100008.03;4207122;28;20237;-62
2022/07/30 03:28:56;;;;;;;3.70;1.33;;;;;;;17.17;66.91;100005.56;4213991;28;20263;-62
2022/07/30 03:31:23;;;;;;;11.13;1.90;;;;;;;17.08;67.50;100002.19;4205826;28;20241;-63
2022/07/30 03:33:54;;;;;;;5.60;1.37;;;;;;;17.05;67.65;99998.06;4233673;28;20582;-63
2022/07/30 03:36:21;;;;;;;3.57;1.20;;;;;;;17.10;67.52;100000.16;4230985;28;20235;-64
2022/07/30 03:38:48;;;;;;;3.53;1.30;;;;;;;17.03;67.72;100007.34;4198778;28;23901;-64
2022/07/30 03:41:15;;;;;;;4.10;1.23;;;;;;;16.96;67.81;99991.16;4201593;28;25739;-67
2022/07/30 03:43:42;;;;;;;3.37;1.20;;;;;;;16.95;68.16;99996.72;4216551;28;20301;-70
2022/07/30 03:46:09;;;;;;;3.83;1.20;;;;;;;16.90;68.73;99988.44;4229930;28;25589;-71
2022/07/30 03:48:39;;;;;;;5.77;1.30;;;;;;;16.84;68.75;99988.19;4211242;28;23790;-71
2022/07/30 03:51:09;;;;;;;2.30;1.23;;;;;;;16.92;68.97;99999.81;4216237;28;21711;-71
2022/07/30 03:53:35;;;;;;;4.00;1.30;;;;;;;16.84;68.79;99998.13;4213587;28;20240;-67
2022/07/30 03:56:03;;;;;;;4.80;1.23;;;;;;;16.84;68.96;100004.31;4229466;28;20235;-70
2022/07/30 03:58:30;;;;;;;3.53;1.43;;;;;;;16.86;69.07;100004.97;4208923;28;20655;-72
2022/07/30 04:01:01;;;;;;;5.80;1.30;;;;;;;16.86;69.50;100015.72;4230916;28;20232;-63
2022/07/30 04:03:31;;;;;;;4.07;1.40;;;;;;;16.93;69.26;100018.47;4229121;28;20467;-65
2022/07/30 04:05:59;;;;;;;3.30;1.53;;;;;;;16.94;68.97;100016.59;4212676;28;20968;-62
2022/07/30 04:08:28;;;;;;;5.57;1.30;;;;;;;16.97;68.80;100019.69;4208494;28;20238;-64
2022/07/30 04:10:55;;;;;;;4.47;1.53;;;;;;;17.03;68.87;100026.16;4224801;28;21118;-64
2022/07/30 04:13:22;;;;;;;2.30;1.20;;;;;;;16.95;69.12;100021.78;4214525;28;20826;-67
2022/07/30 04:15:54;;;;;;;4.53;1.20;;;;;;;17.02;69.08;100029.84;4202764;28;20267;-63
2022/07/30 04:18:48;;;;;;;6.40;1.40;;;;;;;17.09;69.07;100022.66;4220718;28;21002;-64
2022/07/30 04:21:17;;;;;;;3.70;1.37;;;;;;;17.18;68.32;100029.53;4215713;28;20321;-63
2022/07/30 04:23:44;;;;;;;2.73;1.20;;;;;;;17.22;68.36;100025.44;4187038;28;20240;-66
2022/07/30 04:26:31;;;;;;;5.90;1.37;;;;;;;17.17;68.39;100014.47;4208260;28;21170;-63
2022/07/30 04:28:59;;;;;;;2.80;1.20;;;;;;;17.18;68.53;100009.91;4206044;28;20236;-63
2022/07/30 04:31:26;;;;;;;5.97;1.20;;;;;;;17.21;68.59;100018.41;4207666;28;21534;-64
2022/07/30 04:33:53;;;;;;;6.80;1.43;;;;;;;17.11;69.48;100007.16;4206340;28;20244;-66
2022/07/30 04:36:24;;;;;;;2.70;1.20;;;;;;;17.20;68.53;100008.66;4216347;28;21093;-61
2022/07/30 04:38:50;;;;;;;3.70;1.30;;;;;;;17.26;68.81;100009.75;4208844;28;20669;-63
2022/07/30 04:41:17;;;;;;;5.37;1.57;;;;;;;17.19;68.68;100009.72;4204349;28;20944;-63
2022/07/30 04:43:43;;;;;;;2.57;1.50;;;;;;;17.30;68.45;100011.84;4190460;28;20283;-62
2022/07/30 04:46:10;;;;;;;2.50;1.20;;;;;;;17.34;68.38;100006.06;4201880;28;21060;-63
2022/07/30 04:48:37;;;;;;;4.97;1.20;;;;;;;17.36;68.23;100020.13;4201197;28;20288;-64
2022/07/30 04:51:27;;;;;;;5.50;1.67;;;;;;;17.35;68.31;100019.31;4207975;28;20295;-62
2022/07/30 04:53:55;;;;;;;8.03;1.70;;;;;;;17.49;68.29;100017.53;4211334;28;20311;-62
2022/07/30 04:56:22;;;;;;;1.67;1.10;;;;;;;17.49;68.31;100012.13;4204723;28;27181;-61
2022/07/30 04:58:49;;;;;;;4.20;1.37;;;;;;;17.43;68.58;100004.88;4199331;28;20640;-66
2022/07/30 05:01:24;;;;;;;3.60;1.67;;;;;;;17.41;68.30;100004.22;4207164;28;21662;-66
2022/07/30 05:04:07;;;;;;;4.70;1.33;;;;;;;17.40;68.46;100006.09;4190629;28;21142;-64
2022/07/30 05:06:34;;;;;;;3.40;1.13;;;;;;;17.36;69.22;99998.63;4205434;28;26600;-61
2022/07/30 05:09:01;;;;;;;4.33;1.30;;;;;;;17.34;68.65;100006.88;4200590;28;20703;-62
2022/07/30 05:11:28;;;;;;;4.17;1.50;;;;;;;17.36;68.97;100009.38;4198847;28;21341;-64
2022/07/30 05:13:54;;;;;;;3.73;1.20;;;;;;;17.30;69.10;100005.63;4184208;28;21703;-62
2022/07/30 05:16:21;;;;;;;3.47;1.47;;;;;;;17.32;69.02;100008.13;4208483;28;20322;-63
2022/07/30 05:18:48;;;;;;;3.13;1.30;;;;;;;17.30;69.67;100006.47;4205368;28;20851;-65
2022/07/30 05:21:15;;;;;;;4.63;1.37;;;;;;;17.33;69.67;100010.63;4199387;28;20626;-64
2022/07/30 05:23:41;;;;;;;9.90;1.50;;;;;;;17.27;69.41;100004.16;4195734;28;21338;-63
2022/07/30 05:26:19;;;;;;;4.80;1.50;;;;;;;17.22;69.69;100005.78;4207064;28;20709;-64
2022/07/30 05:28:46;;;;;;;5.67;1.50;;;;;;;17.23;70.41;100000.22;4203011;28;20295;-65
2022/07/30 05:31:19;;;;;;;3.53;1.20;;;;;;;17.29;69.90;100004.78;4209763;28;20253;-64
2022/07/30 05:33:46;;;;;;;4.83;1.40;;;;;;;17.32;70.07;100005.44;4220008;28;20300;-64
2022/07/30 05:36:13;;;;;;;4.83;1.20;;;;;;;17.37;69.86;100011.88;4208170;28;20231;-65
2022/07/30 05:38:39;;;;;;;3.30;1.60;;;;;;;17.39;70.26;100000.91;4221447;28;21781;-64
2022/07/30 05:41:06;;;;;;;4.07;1.60;;;;;;;17.33;70.58;100001.72;4195936;28;20234;-68
2022/07/30 05:43:53;;;;;;;4.83;1.30;;;;;;;17.33;70.72;99996.34;4216191;28;20236;-65
2022/07/30 05:46:22;;;;;;;2.27;1.17;;;;;;;17.18;71.51;99994.59;4208180;28;21636;-63
2022/07/30 05:48:49;;;;;;;3.03;1.57;;;;;;;17.13;71.64;99993.53;4218093;28;20256;-64
2022/07/30 05:51:17;;;;;;;5.13;1.60;;;;;;;17.09;71.68;99987.72;4206046;28;20254;-64
2022/07/30 05:53:44;;;;;;;5.07;1.50;;;;;;;17.12;72.02;99990.03;4191618;28;22289;-61
2022/07/30 05:56:10;;;;;;;4.83;1.43;;;;;;;17.20;71.45;99995.22;4216495;28;22325;-65
2022/07/30 05:58:37;;;;;;;6.13;1.70;;;;;;;17.15;71.53;99986.94;4208460;28;20234;-64
2022/07/30 06:01:04;;;;;;;4.60;1.57;;;;;;;17.10;72.24;99994.78;4190481;28;20325;-64
2022/07/30 06:03:30;;;;;;;12.83;1.70;;;;;;;17.16;72.75;99983.22;4205926;28;20245;-64
2022/07/30 06:05:57;;;;;;;6.90;1.90;;;;;;;17.16;73.12;99988.59;4202906;28;20274;-63
2022/07/30 06:08:23;;;;;;;4.73;1.70;;;;;;;17.14;74.09;99990.66;4196477;28;20237;-66
2022/07/30 06:10:50;;;;;;;3.73;1.40;;;;;;;17.12;74.62;99998.09;4197991;28;20283;-63
2022/07/30 06:13:16;;;;;;;10.00;1.90;;;;;;;17.18;74.60;99994.59;4202598;28;20335;-65
2022/07/30 06:15:43;;;;;;;8.17;1.50;;;;;;;17.19;74.71;100004.34;4199671;28;20224;-64
2022/07/30 06:18:10;;;;;;;5.43;1.40;;;;;;;17.23;74.73;100000.22;4192459;28;20248;-64
2022/07/30 06:20:36;;;;;;;5.23;1.40;;;;;;;17.28;74.61;100002.31;4194806;28;20334;-64
2022/07/30 06:23:03;;;;;;;3.70;1.70;;;;;;;17.33;74.49;99996.34;4210981;28;20236;-64
2022/07/30 06:25:30;;;;;;;4.67;1.53;;;;;;;17.29;74.94;99996.72;4196508;28;20667;-61
2022/07/30 06:27:56;;;;;;;5.33;1.50;;;;;;;17.34;74.64;99992.59;4189370;28;21334;-65
2022/07/30 06:30:23;;;;;;;5.47;1.47;;;;;;;17.51;73.51;99996.59;4199656;28;20229;-63
2022/07/30 06:32:56;;;;;;;5.03;1.40;;;;;;;17.54;73.46;99990.00;4193214;28;20236;-65
2022/07/30 06:35:23;;;;;;;7.60;1.80;;;;;;;17.52;73.74;99987.53;4199878;28;25161;-51
2022/07/30 06:37:49;;;;;;;3.40;1.33;;;;;;;17.50;74.66;99979.63;4203863;28;20236;-70
2022/07/30 06:40:33;;;;;;;3.60;1.63;;;;;;;17.43;75.59;99969.88;4205213;28;20257;-70
2022/07/30 06:42:59;;;;;;;6.30;1.70;;;;;;;17.42;75.60;99974.44;4194939;28;20308;-71
2022/07/30 06:45:26;;;;;;;5.43;1.90;;;;;;;17.38;75.44;99975.88;4186915;28;22078;-69
2022/07/30 06:47:57;;;;;;;4.53;1.63;;;;;;;17.34;76.04;99977.28;4195482;28;20241;-70
2022/07/30 06:50:24;;;;;;;8.23;1.70;;;;;;;17.39;76.13;99977.53;4188945;28;20225;-74
2022/07/30 06:52:51;;;;;;;4.77;1.63;;;;;;;17.42;75.65;99976.28;4198375;28;21153;-75
2022/07/30 06:55:18;;;;;;;6.67;1.63;;;;;;;17.48;75.70;99975.50;4194929;28;20250;-72
2022/07/30 06:57:44;;;;;;;7.40;1.70;;;;;;;17.56;75.42;99964.56;4192540;28;23257;-73
2022/07/30 07:00:11;;;;;;;4.57;1.60;;;;;;;17.56;75.32;99964.56;4201875;28;20240;-73
2022/07/30 07:02:38;;;;;;;5.63;1.60;;;;;;;17.62;74.48;99955.66;4207505;28;20354;-72
2022/07/30 07:05:06;;;;;;;7.43;1.70;;;;;;;17.53;74.05;99956.88;4202921;28;21603;-70
2022/07/30 07:07:36;;;;;;;6.63;1.60;;;;;;;17.54;74.71;99963.13;4189892;28;20245;-71
2022/07/30 07:10:11;;;;;;;3.23;1.80;;;;;;;17.64;73.98;99961.69;4188751;28;20232;-71
2022/07/30 07:12:38;;;;;;;6.20;2.00;;;;;;;17.61;74.17;99970.16;4195381;28;20266;-70
2022/07/30 07:15:06;;;;;;;9.07;1.93;;;;;;;17.76;73.55;99959.22;4204972;28;20247;-72
2022/07/30 07:17:32;;;;;;;5.63;1.70;;;;;;;17.84;73.12;99953.69;4206970;28;20288;-74
2022/07/30 07:19:59;;;;;;;4.93;1.60;;;;;;;17.81;73.64;99948.69;4206065;28;21471;-73
2022/07/30 07:22:28;;;;;;;8.63;1.93;;;;;;;17.89;73.25;99947.69;4203414;28;22558;-72
2022/07/30 07:24:55;;;;;;;4.30;1.70;;;;;;;17.97;72.79;99947.50;4199422;28;20232;-75
2022/07/30 07:27:21;;;;;;;4.70;1.60;;;;;;;17.90;72.65;99942.09;4203219;28;20290;-73
2022/07/30 07:29:48;;;;;;;3.00;1.50;;;;;;;17.91;72.28;99942.91;4204464;28;21777;-75
2022/07/30 07:32:32;;;;;;;5.33;2.00;;;;;;;17.86;72.92;99942.69;4212083;28;20607;-74
2022/07/30 07:35:01;;;;;;;4.13;1.37;;;;;;;18.05;72.54;99952.69;4232024;28;23172;-72
2022/07/30 07:37:28;;;;;;;8.77;2.53;;;;;;;18.12;72.17;99945.44;4220987;28;20512;-72
2022/07/30 07:39:55;;;;;;;6.70;1.80;;;;;;;18.28;72.22;99946.88;4189049;28;20237;-73
2022/07/30 07:42:21;;;;;;;6.57;2.13;;;;;;;18.60;70.51;99957.03;4210328;28;20256;-68
2022/07/30 07:44:48;;;;;;;6.20;2.47;;;;;;;18.67;70.18;99963.25;4199449;28;21805;-71
2022/07/30 07:47:15;;;;;;;4.23;1.80;;;;;;;18.67;69.74;99958.66;4202643;28;20239;-69
2022/07/30 07:49:41;;;;;;;3.47;1.43;;;;;;;18.86;69.30;99948.91;4206540;28;20243;-72
2022/07/30 07:52:08;;;;;;;5.47;1.90;;;;;;;18.97;68.65;99950.97;4203639;28;20237;-69
2022/07/30 07:54:34;;;;;;;6.57;1.83;;;;;;;19.08;68.28;99949.50;4202493;28;20708;-79
2022/07/30 07:57:02;;;;;;;8.60;2.20;;;;;;;19.25;67.87;99949.84;4192868;28;22327;-68
2022/07/30 07:59:30;;;;;;;4.87;1.97;;;;;;;19.34;67.43;99947.72;4196488;28;20240;-69
2022/07/30 08:02:04;;;;;;;6.97;2.10;;;;;;;19.61;66.78;99948.41;4219851;28;20740;-70
2022/07/30 08:04:33;;;;;;;9.97;2.10;;;;;;;20.11;64.33;99945.84;4209612;28;20563;-72
2022/07/30 08:06:59;;;;;;;5.80;1.67;;;;;;;20.32;63.96;99939.22;4218046;28;21089;-70
2022/07/30 08:09:27;;;;;;;7.90;2.03;;;;;;;20.45;62.81;99944.50;4217832;28;21766;-71
2022/07/30 08:12:09;;;;;;;5.33;1.83;;;;;;;20.70;62.50;99950.94;4224276;28;20639;-67
2022/07/30 08:14:36;;;;;;;4.80;1.73;;;;;;;20.74;62.78;99952.16;4244892;28;20252;-70
2022/07/30 08:17:03;;;;;;;6.60;1.90;;;;;;;20.62;63.22;99941.25;4206913;28;21695;-71
2022/07/30 08:19:30;;;;;;;6.00;1.90;;;;;;;20.53;63.28;99932.56;4216231;28;21783;-71
2022/07/30 08:21:58;;;;;;;5.50;1.90;;;;;;;20.61;63.10;99937.75;4227047;28;20240;-69
2022/07/30 08:24:25;;;;;;;5.20;2.03;;;;;;;20.67;63.06;99930.59;4241115;28;20301;-72
2022/07/30 08:26:52;;;;;;;4.63;1.80;;;;;;;20.79;62.77;99927.97;4231833;28;20247;-71
2022/07/30 08:29:19;;;;;;;6.83;2.30;;;;;;;20.74;63.02;99931.34;4241559;28;20253;-70
2022/07/30 08:31:45;;;;;;;5.30;2.03;;;;;;;21.05;62.52;99932.28;4229278;28;20237;-72
2022/07/30 08:34:12;;;;;;;5.17;1.97;;;;;;;21.34;61.88;99930.66;4209581;28;22462;-71
2022/07/30 08:36:39;;;;;;;7.63;1.80;;;;;;;21.53;61.45;99933.38;4201107;28;20906;-70
2022/07/30 08:39:07;;;;;;;9.70;2.00;;;;;;;21.41;60.55;99930.63;4195053;28;20308;-69
2022/07/30 08:41:35;;;;;;;6.67;1.80;;;;;;;21.27;61.17;99930.75;4221991;28;20229;-68
2022/07/30 08:44:03;;;;;;;8.70;2.07;;;;;;;21.03;62.18;99918.97;4195048;28;20236;-70
2022/07/30 08:46:35;;;;;;;4.33;1.77;;;;;;;20.89;63.05;99922.88;4214408;28;20232;-68
2022/07/30 08:49:03;;;;;;;4.47;2.30;;;;;;;20.66;64.13;99926.25;4210886;28;20308;-70
2022/07/30 08:51:35;;;;;;;5.03;2.30;;;;;;;20.93;64.07;99921.41;4211936;28;20249;-69
2022/07/30 08:54:03;;;;;;;4.27;1.90;;;;;;;21.15;62.43;99927.16;4230159;28;20230;-69
2022/07/30 08:56:31;;;;;;;3.67;1.97;;;;;;;21.21;62.15;99920.84;4225929;28;20251;-70
2022/07/30 08:58:58;;;;;;;7.57;1.80;;;;;;;21.48;61.42;99921.34;4228733;28;20527;-62
2022/07/30 09:01:25;;;;;;;5.87;1.77;;;;;;;21.64;61.07;99930.72;4232614;28;22118;-63
2022/07/30 09:03:53;;;;;;;5.43;2.00;;;;;;;21.73;60.31;99925.81;4219082;28;20244;-62
2022/07/30 09:06:20;;;;;;;5.30;1.80;;;;;;;22.05;60.26;99930.94;4224423;28;20293;-62
2022/07/30 09:08:47;;;;;;;6.00;1.70;;;;;;;22.18;58.94;99936.16;4220297;28;20340;-63
2022/07/30 09:11:14;;;;;;;7.33;2.00;;;;;;;22.24;58.46;99935.25;4215413;28;21087;-62
2022/07/30 09:13:43;;;;;;;5.47;2.00;;;;;;;22.45;59.06;99924.88;4208748;28;20354;-63
2022/07/30 09:16:25;;;;;;;6.43;1.80;;;;;;;22.75;56.97;99925.56;4222404;28;20233;-62
2022/07/30 09:18:53;;;;;;;10.67;2.40;;;;;;;22.95;56.32;99924.38;4212240;28;20283;-64
2022/07/30 09:21:24;;;;;;;6.93;2.00;;;;;;;22.63;56.81;99930.19;4216955;28;21460;-63
2022/07/30 09:24:06;;;;;;;7.83;1.97;;;;;;;22.51;57.44;99926.66;4215820;28;20305;-64
2022/07/30 09:27:01;;;;;;;9.83;2.07;;;;;;;22.49;57.58;99921.44;4210080;28;20232;-62
2022/07/30 09:29:30;;;;;;;2.87;1.70;;;;;;;22.81;57.51;99928.41;4208292;28;20235;-66
2022/07/30 09:32:03;;;;;;;5.53;1.67;;;;;;;23.51;56.08;99928.25;4236201;28;20517;-64
2022/07/30 09:34:33;;;;;;;6.40;2.00;;;;;;;23.63;53.71;99932.81;4233965;28;20435;-50
2022/07/30 09:37:15;;;;;;;9.23;2.07;;;;;;;23.27;55.39;99935.66;4202069;28;21168;-62
2022/07/30 09:39:42;;;;;;;6.20;2.20;;;;;;;22.87;56.50;99933.69;4221006;28;21164;-62
2022/07/30 09:42:26;;;;;;;9.13;2.17;;;;;;;22.77;56.97;99933.47;4241219;28;20242;-65
2022/07/30 09:45:07;;;;;;;5.90;2.00;;;;;;;22.51;58.16;99924.75;4292494;28;20687;-66
2022/07/30 09:47:36;;;;;;;5.60;2.10;;;;;;;22.52;58.69;99920.16;4209882;28;20232;-61
2022/07/30 09:50:11;;;;;;;6.53;1.87;;;;;;;22.40;59.00;99922.03;4228609;28;21734;-62
2022/07/30 09:52:44;;;;;;;2.10;1.60;;;;;;;22.32;59.06;99918.63;4213310;28;23149;-62
2022/07/30 09:55:28;;;;;;;9.43;2.13;;;;;;;22.25;59.54;99917.91;4212562;28;21723;-62
2022/07/30 09:58:03;;;;;;;8.80;2.63;;;;;;;22.22;59.92;99921.09;4211274;28;21730;-61
2022/07/30 10:00:32;;;;;;;4.73;1.93;;;;;;;22.37;59.72;99911.69;4222481;28;20350;-62
2022/07/30 10:02:59;;;;;;;7.90;2.43;;;;;;;22.26;60.29;99916.84;4205555;28;20292;-64
2022/07/30 10:05:38;;;;;;;5.27;2.10;;;;;;;22.18;59.90;99914.47;4199956;28;22276;-64
2022/07/30 10:08:06;;;;;;;5.63;2.07;;;;;;;22.06;61.11;99917.16;4209772;28;21545;-63
2022/07/30 10:10:42;;;;;;;5.53;1.90;;;;;;;22.05;59.86;99920.91;4202595;28;20462;-66
2022/07/30 10:13:17;;;;;;;5.50;1.90;;;;;;;22.05;59.64;99914.66;4225763;28;21537;-67
2022/07/30 10:15:48;;;;;;;4.60;2.00;;;;;;;21.92;59.93;99921.97;4200470;28;20236;-63
2022/07/30 10:18:15;;;;;;;5.63;1.93;;;;;;;21.98;59.53;99920.19;4194651;28;20261;-63
2022/07/30 10:20:43;;;;;;;5.60;1.63;;;;;;;21.96;60.47;99918.78;4195498;28;20228;-63
2022/07/30 10:23:10;;;;;;;9.57;1.80;;;;;;;21.92;60.86;99921.97;4202289;28;20354;-63
2022/07/30 10:25:42;;;;;;;8.97;1.90;;;;;;;21.89;60.56;99917.00;4192981;28;22494;-63
2022/07/30 10:28:21;;;;;;;11.57;2.37;;;;;;;21.90;60.90;99918.66;4207309;28;22735;-65
2022/07/30 10:30:50;;;;;;;5.80;1.67;;;;;;;21.81;60.78;99911.91;4198325;28;20241;-62
2022/07/30 10:33:17;;;;;;;8.43;1.83;;;;;;;21.72;62.03;99910.59;4164022;28;20406;-66
2022/07/30 10:36:03;;;;;;;4.40;1.80;;;;;;;21.72;61.78;99918.72;4205686;28;20234;-64
2022/07/30 10:38:33;;;;;;;3.53;1.77;;;;;;;21.70;61.87;99918.13;4200859;28;20225;-65
2022/07/30 10:41:23;;;;;;;8.30;1.90;;;;;;;21.60;62.70;99923.28;4197552;28;22257;-64
2022/07/30 10:44:42;;;;;;;6.70;1.90;;;;;;;21.45;64.23;99921.81;4199742;28;20235;-63
2022/07/30 10:47:12;;;;;;;5.30;2.00;;;;;;;21.38;65.29;99920.22;4205263;28;21586;-67
2022/07/30 10:49:39;;;;;;;6.80;1.90;;;;;;;21.38;65.69;99915.63;4188306;28;21229;-62
2022/07/30 10:52:09;;;;;;;8.87;1.90;;;;;;;21.38;65.08;99923.75;4187871;28;21657;-66
2022/07/30 10:54:38;;;;;;;7.97;2.23;;;;;;;21.43;65.63;99923.09;4195437;28;20365;-65
2022/07/30 10:57:15;;;;;;;6.03;2.63;;;;;;;21.55;65.60;99925.84;4187794;28;20569;-65
2022/07/30 10:59:59;;;;;;;4.93;2.00;;;;;;;21.47;64.86;99925.13;4192216;28;20301;-62
2022/07/30 11:02:34;;;;;;;12.10;2.50;;;;;;;21.53;64.63;99925.25;4197362;28;20295;-65
2022/07/30 11:05:16;;;;;;;7.47;2.00;;;;;;;21.64;64.61;99921.75;4195063;28;21648;-63
2022/07/30 11:07:44;;;;;;;5.17;1.70;;;;;;;21.65;64.78;99931.53;4198015;28;20267;-63
2022/07/30 11:10:38;;;;;;;4.57;2.23;;;;;;;21.53;64.07;99923.38;4204628;28;20304;-64
2022/07/30 11:13:06;;;;;;;6.60;1.93;;;;;;;21.44;65.35;99917.44;4200926;28;20247;-64
2022/07/30 11:15:53;;;;;;;6.90;2.67;;;;;;;21.50;65.66;99915.72;4192019;28;21604;-65
2022/07/30 11:18:23;;;;;;;5.77;2.20;;;;;;;21.42;65.50;99913.31;4215605;28;22244;-63
2022/07/30 11:21:16;;;;;;;7.33;2.20;;;;;;;21.28;66.31;99921.59;4203091;28;20285;-62
2022/07/30 11:23:48;;;;;;;3.97;2.30;;;;;;;21.19;67.31;99917.53;4201626;28;20311;-63
2022/07/30 11:26:37;;;;;;;8.20;2.20;;;;;;;21.09;69.49;99914.53;4215057;28;20233;-62
2022/07/30 11:29:07;;;;;;;4.63;2.07;;;;;;;20.90;71.91;99916.41;4189812;28;20341;-47
2022/07/30 11:31:36;;;;;;;4.83;2.20;;;;;;;20.66;74.20;99910.03;4184237;28;20241;-50
2022/07/30 11:34:24;;;;;;;4.60;2.23;;;;;;;20.46;77.50;99912.88;4203139;28;20942;-52
2022/07/30 11:37:16;;;;;;;7.43;3.63;;;;;;;20.21;78.80;99905.66;4205714;28;20241;-47
2022/07/30 11:39:56;;;;;;;6.23;2.30;;;;;;;19.99;80.70;99897.13;4217402;28;20236;-51
2022/07/30 11:42:31;;;;;;;4.00;2.57;;;;;;;19.73;83.75;99898.09;4203790;28;20225;-47
2022/07/30 11:45:16;;;;;;;8.60;3.10;;;;;;;19.47;88.10;99896.38;4204114;28;20331;-47
2022/07/30 11:47:48;;;;;;;5.03;3.13;;;;;;;19.34;90.06;99894.59;4196391;28;20584;-49